sensor_id;sensor_type;location;lat;lon;timestamp;P1;durP1;ratioP1;P2;durP2;ratioP2
8337;SDS011;4206;48.634;9.516;2023-12-20T00:02:11;0.40;;;0.30;;
8337;SDS011;4206;48.634;9.516;2023-12-20T00:04:38;0.70;;;0.30;;
8337;SDS011;4206;48.634;9.516;2023-12-20T00:07:05;0.80;;;0.57;;
8337;SDS011;4206;48.634;9.516;2023-12-20T00:09:32;1.00;;;0.60;;
8337;SDS011;4206;48.634;9.516;2023-12-20T00:11:59;0.40;;;0.20;;
8337;SDS011;4206;48.634;9.516;2023-12-20T00:14:26;1.93;;;0.67;;
8337;SDS011;4206;48.634;9.516;2023-12-20T00:16:53;0.87;;;0.40;;
8337;SDS011;4206;48.634;9.516;2023-12-20T00:19:20;0.40;;;0.30;;
8337;SDS011;4206;48.634;9.516;2023-12-20T00:21:47;0.40;;;0.30;;
8337;SDS011;4206;48.634;9.516;2023-12-20T00:24:13;0.50;;;0.50;;
8337;SDS011;4206;48.634;9.516;2023-12-20T00:26:41;0.50;;;0.40;;
8337;SDS011;4206;48.634;9.516;2023-12-20T00:29:07;0.40;;;0.30;;
8337;SDS011;4206;48.634;9.516;2023-12-20T00:31:34;1.30;;;0.47;;
8337;SDS011;4206;48.634;9.516;2023-12-20T00:34:02;1.37;;;0.20;;
8337;SDS011;4206;48.634;9.516;2023-12-20T00:36:29;1.10;;;0.47;;
8337;SDS011;4206;48.634;9.516;2023-12-20T00:38:56;0.90;;;0.30;;
8337;SDS011;4206;48.634;9.516;2023-12-20T00:41:23;0.40;;;0.20;;
8337;SDS011;4206;48.634;9.516;2023-12-20T00:43:50;0.30;;;0.20;;
8337;SDS011;4206;48.634;9.516;2023-12-20T00:46:17;0.40;;;0.20;;
8337;SDS011;4206;48.634;9.516;2023-12-20T00:48:43;0.40;;;0.20;;
8337;SDS011;4206;48.634;9.516;2023-12-20T00:51:11;0.50;;;0.30;;
8337;SDS011;4206;48.634;9.516;2023-12-20T00:53:38;0.60;;;0.20;;
8337;SDS011;4206;48.634;9.516;2023-12-20T00:56:05;0.40;;;0.20;;
8337;SDS011;4206;48.634;9.516;2023-12-20T00:58:32;0.50;;;0.30;;
8337;SDS011;4206;48.634;9.516;2023-12-20T01:00:59;0.40;;;0.20;;
8337;SDS011;4206;48.634;9.516;2023-12-20T01:03:26;0.50;;;0.43;;
8337;SDS011;4206;48.634;9.516;2023-12-20T01:05:53;0.70;;;0.27;;
8337;SDS011;4206;48.634;9.516;2023-12-20T01:08:20;0.40;;;0.20;;
8337;SDS011;4206;48.634;9.516;2023-12-20T01:10:47;0.60;;;0.20;;
8337;SDS011;4206;48.634;9.516;2023-12-20T01:13:14;0.40;;;0.27;;
8337;SDS011;4206;48.634;9.516;2023-12-20T01:15:41;0.40;;;0.30;;
8337;SDS011;4206;48.634;9.516;2023-12-20T01:18:08;0.43;;;0.20;;
8337;SDS011;4206;48.634;9.516;2023-12-20T01:20:35;0.30;;;0.20;;
8337;SDS011;4206;48.634;9.516;2023-12-20T01:23:02;0.33;;;0.20;;
8337;SDS011;4206;48.634;9.516;2023-12-20T01:25:29;0.50;;;0.30;;
8337;SDS011;4206;48.634;9.516;2023-12-20T01:27:56;0.50;;;0.20;;
8337;SDS011;4206;48.634;9.516;2023-12-20T01:30:23;0.40;;;0.20;;
8337;SDS011;4206;48.634;9.516;2023-12-20T01:32:50;0.33;;;0.20;;
8337;SDS011;4206;48.634;9.516;2023-12-20T01:35:17;0.73;;;0.30;;
8337;SDS011;4206;48.634;9.516;2023-12-20T01:37:45;0.50;;;0.30;;
8337;SDS011;4206;48.634;9.516;2023-12-20T01:40:12;0.40;;;0.20;;
8337;SDS011;4206;48.634;9.516;2023-12-20T01:42:39;0.83;;;0.30;;
8337;SDS011;4206;48.634;9.516;2023-12-20T01:45:06;0.47;;;0.30;;
8337;SDS011;4206;48.634;9.516;2023-12-20T01:47:33;1.27;;;0.47;;
8337;SDS011;4206;48.634;9.516;2023-12-20T01:50:01;0.40;;;0.30;;
8337;SDS011;4206;48.634;9.516;2023-12-20T01:52:30;1.33;;;0.40;;
8337;SDS011;4206;48.634;9.516;2023-12-20T01:55:00;0.90;;;0.50;;
8337;SDS011;4206;48.634;9.516;2023-12-20T01:57:29;1.70;;;0.30;;
8337;SDS011;4206;48.634;9.516;2023-12-20T01:59:57;0.40;;;0.30;;
8337;SDS011;4206;48.634;9.516;2023-12-20T02:02:25;2.10;;;0.40;;
8337;SDS011;4206;48.634;9.516;2023-12-20T02:04:53;0.50;;;0.30;;
8337;SDS011;4206;48.634;9.516;2023-12-20T02:07:21;0.80;;;0.40;;
8337;SDS011;4206;48.634;9.516;2023-12-20T02:09:49;0.60;;;0.40;;
8337;SDS011;4206;48.634;9.516;2023-12-20T02:12:16;0.40;;;0.20;;
8337;SDS011;4206;48.634;9.516;2023-12-20T02:14:44;0.97;;;0.50;;
8337;SDS011;4206;48.634;9.516;2023-12-20T02:17:11;0.50;;;0.40;;
8337;SDS011;4206;48.634;9.516;2023-12-20T02:19:38;0.43;;;0.40;;
8337;SDS011;4206;48.634;9.516;2023-12-20T02:22:07;0.50;;;0.40;;
8337;SDS011;4206;48.634;9.516;2023-12-20T02:24:35;1.13;;;0.40;;
8337;SDS011;4206;48.634;9.516;2023-12-20T02:27:02;1.00;;;0.40;;
8337;SDS011;4206;48.634;9.516;2023-12-20T02:29:29;0.63;;;0.30;;
8337;SDS011;4206;48.634;9.516;2023-12-20T02:31:57;4.13;;;0.50;;
8337;SDS011;4206;48.634;9.516;2023-12-20T02:34:24;1.40;;;0.43;;
8337;SDS011;4206;48.634;9.516;2023-12-20T02:36:51;2.20;;;0.50;;
8337;SDS011;4206;48.634;9.516;2023-12-20T02:39:19;0.90;;;0.70;;
8337;SDS011;4206;48.634;9.516;2023-12-20T02:41:46;3.13;;;0.43;;
8337;SDS011;4206;48.634;9.516;2023-12-20T02:44:14;0.90;;;0.37;;
8337;SDS011;4206;48.634;9.516;2023-12-20T02:46:40;2.83;;;0.70;;
8337;SDS011;4206;48.634;9.516;2023-12-20T02:49:07;0.57;;;0.47;;
8337;SDS011;4206;48.634;9.516;2023-12-20T02:51:34;1.33;;;0.70;;
8337;SDS011;4206;48.634;9.516;2023-12-20T02:54:04;1.10;;;0.60;;
8337;SDS011;4206;48.634;9.516;2023-12-20T02:56:33;0.80;;;0.60;;
8337;SDS011;4206;48.634;9.516;2023-12-20T02:59:00;0.50;;;0.40;;
8337;SDS011;4206;48.634;9.516;2023-12-20T03:01:28;0.70;;;0.50;;
8337;SDS011;4206;48.634;9.516;2023-12-20T03:03:56;1.60;;;0.47;;
8337;SDS011;4206;48.634;9.516;2023-12-20T03:06:23;1.60;;;0.70;;
8337;SDS011;4206;48.634;9.516;2023-12-20T03:08:51;1.10;;;0.50;;
8337;SDS011;4206;48.634;9.516;2023-12-20T03:11:18;2.30;;;0.53;;
8337;SDS011;4206;48.634;9.516;2023-12-20T03:13:45;0.60;;;0.60;;
8337;SDS011;4206;48.634;9.516;2023-12-20T03:16:12;0.70;;;0.50;;
8337;SDS011;4206;48.634;9.516;2023-12-20T03:18:40;0.40;;;0.33;;
8337;SDS011;4206;48.634;9.516;2023-12-20T03:21:07;1.10;;;0.53;;
8337;SDS011;4206;48.634;9.516;2023-12-20T03:23:34;0.67;;;0.67;;
8337;SDS011;4206;48.634;9.516;2023-12-20T03:26:01;1.03;;;0.50;;
8337;SDS011;4206;48.634;9.516;2023-12-20T03:28:28;1.83;;;0.50;;
8337;SDS011;4206;48.634;9.516;2023-12-20T03:30:56;0.40;;;0.40;;
8337;SDS011;4206;48.634;9.516;2023-12-20T03:33:22;1.50;;;0.50;;
8337;SDS011;4206;48.634;9.516;2023-12-20T03:35:49;1.17;;;0.60;;
8337;SDS011;4206;48.634;9.516;2023-12-20T03:38:16;0.50;;;0.30;;
8337;SDS011;4206;48.634;9.516;2023-12-20T03:40:43;1.10;;;0.53;;
8337;SDS011;4206;48.634;9.516;2023-12-20T03:43:10;0.50;;;0.50;;
8337;SDS011;4206;48.634;9.516;2023-12-20T03:45:37;2.37;;;0.60;;
8337;SDS011;4206;48.634;9.516;2023-12-20T03:48:04;0.77;;;0.37;;
8337;SDS011;4206;48.634;9.516;2023-12-20T03:50:31;1.27;;;0.70;;
8337;SDS011;4206;48.634;9.516;2023-12-20T03:52:58;3.23;;;0.43;;
8337;SDS011;4206;48.634;9.516;2023-12-20T03:55:25;1.07;;;0.70;;
8337;SDS011;4206;48.634;9.516;2023-12-20T03:57:52;0.50;;;0.40;;
8337;SDS011;4206;48.634;9.516;2023-12-20T04:00:19;2.00;;;0.60;;
8337;SDS011;4206;48.634;9.516;2023-12-20T04:02:46;1.00;;;0.50;;
8337;SDS011;4206;48.634;9.516;2023-12-20T04:05:13;2.10;;;0.67;;
8337;SDS011;4206;48.634;9.516;2023-12-20T04:07:40;0.50;;;0.30;;
8337;SDS011;4206;48.634;9.516;2023-12-20T04:10:08;0.40;;;0.30;;
8337;SDS011;4206;48.634;9.516;2023-12-20T04:12:35;0.40;;;0.40;;
8337;SDS011;4206;48.634;9.516;2023-12-20T04:15:02;1.60;;;0.37;;
8337;SDS011;4206;48.634;9.516;2023-12-20T04:17:35;0.50;;;0.30;;
8337;SDS011;4206;48.634;9.516;2023-12-20T04:20:03;5.47;;;0.60;;
8337;SDS011;4206;48.634;9.516;2023-12-20T04:22:30;0.50;;;0.30;;
8337;SDS011;4206;48.634;9.516;2023-12-20T04:24:57;0.67;;;0.47;;
8337;SDS011;4206;48.634;9.516;2023-12-20T04:27:24;0.50;;;0.30;;
8337;SDS011;4206;48.634;9.516;2023-12-20T04:29:51;0.53;;;0.20;;
8337;SDS011;4206;48.634;9.516;2023-12-20T04:32:18;0.50;;;0.27;;
8337;SDS011;4206;48.634;9.516;2023-12-20T04:34:45;1.43;;;0.50;;
8337;SDS011;4206;48.634;9.516;2023-12-20T04:37:12;0.53;;;0.30;;
8337;SDS011;4206;48.634;9.516;2023-12-20T04:39:39;0.63;;;0.33;;
8337;SDS011;4206;48.634;9.516;2023-12-20T04:42:07;0.50;;;0.33;;
8337;SDS011;4206;48.634;9.516;2023-12-20T04:44:34;0.93;;;0.40;;
8337;SDS011;4206;48.634;9.516;2023-12-20T04:47:01;0.40;;;0.30;;
8337;SDS011;4206;48.634;9.516;2023-12-20T04:49:29;0.40;;;0.40;;
8337;SDS011;4206;48.634;9.516;2023-12-20T04:51:56;0.90;;;0.30;;
8337;SDS011;4206;48.634;9.516;2023-12-20T04:54:23;0.40;;;0.30;;
8337;SDS011;4206;48.634;9.516;2023-12-20T04:56:50;0.70;;;0.30;;
8337;SDS011;4206;48.634;9.516;2023-12-20T04:59:17;0.70;;;0.20;;
8337;SDS011;4206;48.634;9.516;2023-12-20T05:01:43;0.90;;;0.30;;
8337;SDS011;4206;48.634;9.516;2023-12-20T05:04:10;0.40;;;0.30;;
8337;SDS011;4206;48.634;9.516;2023-12-20T05:06:37;0.40;;;0.30;;
8337;SDS011;4206;48.634;9.516;2023-12-20T05:09:04;1.30;;;0.30;;
8337;SDS011;4206;48.634;9.516;2023-12-20T05:11:31;0.40;;;0.20;;
8337;SDS011;4206;48.634;9.516;2023-12-20T05:13:58;0.40;;;0.20;;
8337;SDS011;4206;48.634;9.516;2023-12-20T05:16:25;0.43;;;0.30;;
8337;SDS011;4206;48.634;9.516;2023-12-20T05:18:52;0.30;;;0.20;;
8337;SDS011;4206;48.634;9.516;2023-12-20T05:21:19;1.07;;;0.30;;
8337;SDS011;4206;48.634;9.516;2023-12-20T05:23:46;0.67;;;0.30;;
8337;SDS011;4206;48.634;9.516;2023-12-20T05:26:13;0.33;;;0.20;;
8337;SDS011;4206;48.634;9.516;2023-12-20T05:28:40;0.30;;;0.20;;
8337;SDS011;4206;48.634;9.516;2023-12-20T05:31:06;0.40;;;0.23;;
8337;SDS011;4206;48.634;9.516;2023-12-20T05:33:33;0.90;;;0.30;;
8337;SDS011;4206;48.634;9.516;2023-12-20T05:36:01;0.40;;;0.20;;
8337;SDS011;4206;48.634;9.516;2023-12-20T05:38:27;6.77;;;2.80;;
8337;SDS011;4206;48.634;9.516;2023-12-20T05:40:54;2.20;;;0.50;;
8337;SDS011;4206;48.634;9.516;2023-12-20T05:43:21;0.83;;;0.40;;
8337;SDS011;4206;48.634;9.516;2023-12-20T05:45:48;0.40;;;0.30;;
8337;SDS011;4206;48.634;9.516;2023-12-20T05:48:15;1.77;;;0.40;;
8337;SDS011;4206;48.634;9.516;2023-12-20T05:50:43;2.40;;;0.63;;
8337;SDS011;4206;48.634;9.516;2023-12-20T05:53:09;0.87;;;0.50;;
8337;SDS011;4206;48.634;9.516;2023-12-20T05:55:36;0.50;;;0.30;;
8337;SDS011;4206;48.634;9.516;2023-12-20T05:58:03;0.40;;;0.20;;
8337;SDS011;4206;48.634;9.516;2023-12-20T06:00:31;0.77;;;0.33;;
8337;SDS011;4206;48.634;9.516;2023-12-20T06:02:58;0.70;;;0.20;;
8337;SDS011;4206;48.634;9.516;2023-12-20T06:05:25;0.40;;;0.20;;
8337;SDS011;4206;48.634;9.516;2023-12-20T06:07:52;0.40;;;0.20;;
8337;SDS011;4206;48.634;9.516;2023-12-20T06:10:20;0.30;;;0.20;;
8337;SDS011;4206;48.634;9.516;2023-12-20T06:12:48;0.37;;;0.20;;
8337;SDS011;4206;48.634;9.516;2023-12-20T06:15:17;0.50;;;0.30;;
8337;SDS011;4206;48.634;9.516;2023-12-20T06:17:44;0.50;;;0.30;;
8337;SDS011;4206;48.634;9.516;2023-12-20T06:20:14;0.33;;;0.30;;
8337;SDS011;4206;48.634;9.516;2023-12-20T06:22:41;0.47;;;0.20;;
8337;SDS011;4206;48.634;9.516;2023-12-20T06:25:08;0.40;;;0.30;;
8337;SDS011;4206;48.634;9.516;2023-12-20T06:27:35;0.40;;;0.30;;
8337;SDS011;4206;48.634;9.516;2023-12-20T06:30:02;1.00;;;0.40;;
8337;SDS011;4206;48.634;9.516;2023-12-20T06:32:29;0.60;;;0.40;;
8337;SDS011;4206;48.634;9.516;2023-12-20T06:34:56;0.63;;;0.50;;
8337;SDS011;4206;48.634;9.516;2023-12-20T06:37:23;0.63;;;0.60;;
8337;SDS011;4206;48.634;9.516;2023-12-20T06:39:50;1.10;;;0.33;;
8337;SDS011;4206;48.634;9.516;2023-12-20T06:42:17;0.70;;;0.50;;
8337;SDS011;4206;48.634;9.516;2023-12-20T06:44:44;2.00;;;0.30;;
8337;SDS011;4206;48.634;9.516;2023-12-20T06:47:11;2.80;;;0.60;;
8337;SDS011;4206;48.634;9.516;2023-12-20T06:49:40;1.10;;;0.67;;
8337;SDS011;4206;48.634;9.516;2023-12-20T06:52:07;1.57;;;0.67;;
8337;SDS011;4206;48.634;9.516;2023-12-20T06:54:34;0.80;;;0.47;;
8337;SDS011;4206;48.634;9.516;2023-12-20T06:57:01;0.80;;;0.37;;
8337;SDS011;4206;48.634;9.516;2023-12-20T06:59:29;0.87;;;0.30;;
8337;SDS011;4206;48.634;9.516;2023-12-20T07:01:56;2.00;;;0.40;;
8337;SDS011;4206;48.634;9.516;2023-12-20T07:04:23;0.80;;;0.57;;
8337;SDS011;4206;48.634;9.516;2023-12-20T07:06:50;1.00;;;0.60;;
8337;SDS011;4206;48.634;9.516;2023-12-20T07:09:18;1.77;;;0.50;;
8337;SDS011;4206;48.634;9.516;2023-12-20T07:11:45;2.87;;;0.80;;
8337;SDS011;4206;48.634;9.516;2023-12-20T07:14:12;3.43;;;1.20;;
8337;SDS011;4206;48.634;9.516;2023-12-20T07:16:39;2.20;;;1.07;;
8337;SDS011;4206;48.634;9.516;2023-12-20T07:19:06;0.60;;;0.40;;
8337;SDS011;4206;48.634;9.516;2023-12-20T07:21:33;1.00;;;0.53;;
8337;SDS011;4206;48.634;9.516;2023-12-20T07:24:00;1.50;;;0.50;;
8337;SDS011;4206;48.634;9.516;2023-12-20T07:26:27;0.80;;;0.60;;
8337;SDS011;4206;48.634;9.516;2023-12-20T07:28:54;1.73;;;0.60;;
8337;SDS011;4206;48.634;9.516;2023-12-20T07:31:21;0.57;;;0.30;;
8337;SDS011;4206;48.634;9.516;2023-12-20T07:33:50;0.60;;;0.50;;
8337;SDS011;4206;48.634;9.516;2023-12-20T07:36:18;2.00;;;0.60;;
8337;SDS011;4206;48.634;9.516;2023-12-20T07:38:46;1.10;;;0.30;;
8337;SDS011;4206;48.634;9.516;2023-12-20T07:41:13;0.60;;;0.40;;
8337;SDS011;4206;48.634;9.516;2023-12-20T07:43:39;0.77;;;0.43;;
8337;SDS011;4206;48.634;9.516;2023-12-20T07:46:07;2.73;;;0.50;;
8337;SDS011;4206;48.634;9.516;2023-12-20T07:48:35;0.60;;;0.40;;
8337;SDS011;4206;48.634;9.516;2023-12-20T07:51:02;3.30;;;0.53;;
8337;SDS011;4206;48.634;9.516;2023-12-20T07:53:33;2.23;;;1.83;;
8337;SDS011;4206;48.634;9.516;2023-12-20T07:56:00;0.70;;;0.40;;
8337;SDS011;4206;48.634;9.516;2023-12-20T07:58:27;0.90;;;0.43;;
8337;SDS011;4206;48.634;9.516;2023-12-20T08:01:15;2.40;;;0.60;;
8337;SDS011;4206;48.634;9.516;2023-12-20T08:03:43;1.63;;;0.40;;
8337;SDS011;4206;48.634;9.516;2023-12-20T08:06:10;0.40;;;0.30;;
8337;SDS011;4206;48.634;9.516;2023-12-20T08:08:37;0.60;;;0.20;;
8337;SDS011;4206;48.634;9.516;2023-12-20T08:11:04;0.80;;;0.60;;
8337;SDS011;4206;48.634;9.516;2023-12-20T08:13:31;5.17;;;0.90;;
8337;SDS011;4206;48.634;9.516;2023-12-20T08:15:58;0.97;;;0.50;;
8337;SDS011;4206;48.634;9.516;2023-12-20T08:18:26;1.00;;;0.40;;
8337;SDS011;4206;48.634;9.516;2023-12-20T08:20:53;1.27;;;0.80;;
8337;SDS011;4206;48.634;9.516;2023-12-20T08:23:20;0.73;;;0.73;;
8337;SDS011;4206;48.634;9.516;2023-12-20T08:25:51;1.27;;;0.90;;
8337;SDS011;4206;48.634;9.516;2023-12-20T08:28:18;1.93;;;1.20;;
8337;SDS011;4206;48.634;9.516;2023-12-20T08:30:45;1.50;;;1.17;;
8337;SDS011;4206;48.634;9.516;2023-12-20T08:33:13;2.30;;;1.70;;
8337;SDS011;4206;48.634;9.516;2023-12-20T08:35:40;4.53;;;2.53;;
8337;SDS011;4206;48.634;9.516;2023-12-20T08:38:07;3.77;;;2.83;;
8337;SDS011;4206;48.634;9.516;2023-12-20T08:40:34;2.80;;;2.50;;
8337;SDS011;4206;48.634;9.516;2023-12-20T08:43:01;3.50;;;2.17;;
8337;SDS011;4206;48.634;9.516;2023-12-20T08:45:28;3.13;;;2.20;;
8337;SDS011;4206;48.634;9.516;2023-12-20T08:47:55;3.57;;;2.20;;
8337;SDS011;4206;48.634;9.516;2023-12-20T08:50:27;4.70;;;2.50;;
8337;SDS011;4206;48.634;9.516;2023-12-20T08:52:54;5.00;;;2.50;;
8337;SDS011;4206;48.634;9.516;2023-12-20T08:55:21;3.30;;;2.27;;
8337;SDS011;4206;48.634;9.516;2023-12-20T08:57:48;5.00;;;3.73;;
8337;SDS011;4206;48.634;9.516;2023-12-20T09:00:16;6.57;;;3.80;;
8337;SDS011;4206;48.634;9.516;2023-12-20T09:02:43;5.10;;;3.27;;
8337;SDS011;4206;48.634;9.516;2023-12-20T09:05:10;5.23;;;3.47;;
8337;SDS011;4206;48.634;9.516;2023-12-20T09:07:37;4.30;;;3.03;;
8337;SDS011;4206;48.634;9.516;2023-12-20T09:10:04;4.17;;;2.67;;
8337;SDS011;4206;48.634;9.516;2023-12-20T09:12:31;9.47;;;3.80;;
8337;SDS011;4206;48.634;9.516;2023-12-20T09:14:58;8.20;;;4.00;;
8337;SDS011;4206;48.634;9.516;2023-12-20T09:17:24;7.00;;;4.00;;
8337;SDS011;4206;48.634;9.516;2023-12-20T09:19:52;6.07;;;4.50;;
8337;SDS011;4206;48.634;9.516;2023-12-20T09:22:20;21.63;;;4.67;;
8337;SDS011;4206;48.634;9.516;2023-12-20T09:24:47;8.33;;;4.03;;
8337;SDS011;4206;48.634;9.516;2023-12-20T09:27:14;7.43;;;4.60;;
8337;SDS011;4206;48.634;9.516;2023-12-20T09:29:42;6.97;;;5.37;;
8337;SDS011;4206;48.634;9.516;2023-12-20T09:32:08;5.33;;;4.00;;
8337;SDS011;4206;48.634;9.516;2023-12-20T09:34:35;7.97;;;5.37;;
8337;SDS011;4206;48.634;9.516;2023-12-20T09:37:03;5.93;;;4.10;;
8337;SDS011;4206;48.634;9.516;2023-12-20T09:39:33;6.57;;;5.07;;
8337;SDS011;4206;48.634;9.516;2023-12-20T09:42:00;13.80;;;5.10;;
8337;SDS011;4206;48.634;9.516;2023-12-20T09:44:28;8.50;;;5.50;;
8337;SDS011;4206;48.634;9.516;2023-12-20T09:46:56;11.57;;;7.23;;
8337;SDS011;4206;48.634;9.516;2023-12-20T09:49:24;7.80;;;4.87;;
8337;SDS011;4206;48.634;9.516;2023-12-20T09:51:54;5.33;;;3.67;;
8337;SDS011;4206;48.634;9.516;2023-12-20T09:54:22;8.60;;;4.30;;
8337;SDS011;4206;48.634;9.516;2023-12-20T09:56:50;7.80;;;4.20;;
8337;SDS011;4206;48.634;9.516;2023-12-20T09:59:17;5.90;;;3.80;;
8337;SDS011;4206;48.634;9.516;2023-12-20T10:01:44;5.10;;;3.90;;
8337;SDS011;4206;48.634;9.516;2023-12-20T10:04:12;5.90;;;4.20;;
8337;SDS011;4206;48.634;9.516;2023-12-20T10:06:55;6.57;;;3.73;;
8337;SDS011;4206;48.634;9.516;2023-12-20T10:09:23;6.40;;;2.10;;
8337;SDS011;4206;48.634;9.516;2023-12-20T10:11:53;2.50;;;1.80;;
8337;SDS011;4206;48.634;9.516;2023-12-20T10:14:21;2.20;;;1.30;;
8337;SDS011;4206;48.634;9.516;2023-12-20T10:16:49;2.10;;;1.07;;
8337;SDS011;4206;48.634;9.516;2023-12-20T10:19:16;2.87;;;1.60;;
8337;SDS011;4206;48.634;9.516;2023-12-20T10:21:44;2.90;;;1.20;;
8337;SDS011;4206;48.634;9.516;2023-12-20T10:24:16;3.83;;;1.50;;
8337;SDS011;4206;48.634;9.516;2023-12-20T10:26:44;5.17;;;1.90;;
8337;SDS011;4206;48.634;9.516;2023-12-20T10:29:11;5.97;;;1.27;;
8337;SDS011;4206;48.634;9.516;2023-12-20T10:31:38;3.33;;;1.50;;
8337;SDS011;4206;48.634;9.516;2023-12-20T10:34:05;6.60;;;1.20;;
8337;SDS011;4206;48.634;9.516;2023-12-20T10:36:32;3.63;;;1.30;;
8337;SDS011;4206;48.634;9.516;2023-12-20T10:39:00;4.13;;;1.47;;
8337;SDS011;4206;48.634;9.516;2023-12-20T10:41:28;2.47;;;0.90;;
8337;SDS011;4206;48.634;9.516;2023-12-20T10:44:00;6.20;;;1.10;;
8337;SDS011;4206;48.634;9.516;2023-12-20T10:46:29;7.70;;;1.30;;
8337;SDS011;4206;48.634;9.516;2023-12-20T10:48:57;2.27;;;0.97;;
8337;SDS011;4206;48.634;9.516;2023-12-20T10:51:25;6.23;;;1.30;;
8337;SDS011;4206;48.634;9.516;2023-12-20T10:53:54;5.47;;;1.40;;
8337;SDS011;4206;48.634;9.516;2023-12-20T10:56:22;6.23;;;1.27;;
8337;SDS011;4206;48.634;9.516;2023-12-20T10:58:51;4.73;;;1.20;;
8337;SDS011;4206;48.634;9.516;2023-12-20T11:01:19;8.40;;;1.20;;
8337;SDS011;4206;48.634;9.516;2023-12-20T11:03:48;5.50;;;1.30;;
8337;SDS011;4206;48.634;9.516;2023-12-20T11:06:21;6.53;;;2.17;;
8337;SDS011;4206;48.634;9.516;2023-12-20T11:09:01;6.00;;;1.70;;
8337;SDS011;4206;48.634;9.516;2023-12-20T11:11:42;4.10;;;1.33;;
8337;SDS011;4206;48.634;9.516;2023-12-20T11:14:33;2.80;;;1.10;;
8337;SDS011;4206;48.634;9.516;2023-12-20T11:17:08;7.23;;;1.60;;
8337;SDS011;4206;48.634;9.516;2023-12-20T11:19:36;2.40;;;1.13;;
8337;SDS011;4206;48.634;9.516;2023-12-20T11:22:05;6.40;;;1.93;;
8337;SDS011;4206;48.634;9.516;2023-12-20T11:24:32;4.10;;;1.60;;
8337;SDS011;4206;48.634;9.516;2023-12-20T11:27:00;7.10;;;1.20;;
8337;SDS011;4206;48.634;9.516;2023-12-20T11:31:59;2.07;;;0.80;;
8337;SDS011;4206;48.634;9.516;2023-12-20T11:34:28;2.90;;;0.97;;
8337;SDS011;4206;48.634;9.516;2023-12-20T11:36:59;2.60;;;0.87;;
8337;SDS011;4206;48.634;9.516;2023-12-20T11:39:27;4.43;;;1.00;;
8337;SDS011;4206;48.634;9.516;2023-12-20T11:41:55;3.97;;;1.10;;
8337;SDS011;4206;48.634;9.516;2023-12-20T11:44:25;4.70;;;1.10;;
8337;SDS011;4206;48.634;9.516;2023-12-20T11:46:52;3.10;;;1.10;;
8337;SDS011;4206;48.634;9.516;2023-12-20T11:49:23;2.07;;;1.00;;
8337;SDS011;4206;48.634;9.516;2023-12-20T11:51:50;5.50;;;1.03;;
8337;SDS011;4206;48.634;9.516;2023-12-20T11:54:18;2.90;;;1.20;;
8337;SDS011;4206;48.634;9.516;2023-12-20T11:56:45;2.60;;;1.53;;
8337;SDS011;4206;48.634;9.516;2023-12-20T11:59:13;8.57;;;1.73;;
8337;SDS011;4206;48.634;9.516;2023-12-20T12:01:50;5.13;;;1.17;;
8337;SDS011;4206;48.634;9.516;2023-12-20T12:04:18;4.00;;;1.50;;
8337;SDS011;4206;48.634;9.516;2023-12-20T12:06:46;10.20;;;1.20;;
8337;SDS011;4206;48.634;9.516;2023-12-20T12:09:13;3.30;;;0.97;;
8337;SDS011;4206;48.634;9.516;2023-12-20T12:11:41;10.37;;;1.53;;
8337;SDS011;4206;48.634;9.516;2023-12-20T12:14:08;2.77;;;1.30;;
8337;SDS011;4206;48.634;9.516;2023-12-20T12:16:36;4.50;;;0.93;;
8337;SDS011;4206;48.634;9.516;2023-12-20T12:19:03;3.93;;;1.00;;
8337;SDS011;4206;48.634;9.516;2023-12-20T12:21:30;3.13;;;1.43;;
8337;SDS011;4206;48.634;9.516;2023-12-20T12:24:07;2.47;;;1.07;;
8337;SDS011;4206;48.634;9.516;2023-12-20T12:26:35;2.00;;;0.97;;
8337;SDS011;4206;48.634;9.516;2023-12-20T12:29:01;4.80;;;1.33;;
8337;SDS011;4206;48.634;9.516;2023-12-20T12:31:28;6.17;;;1.10;;
8337;SDS011;4206;48.634;9.516;2023-12-20T12:33:57;6.10;;;1.40;;
8337;SDS011;4206;48.634;9.516;2023-12-20T12:36:24;3.60;;;1.40;;
8337;SDS011;4206;48.634;9.516;2023-12-20T12:38:51;3.40;;;0.90;;
8337;SDS011;4206;48.634;9.516;2023-12-20T12:41:18;3.50;;;1.17;;
8337;SDS011;4206;48.634;9.516;2023-12-20T12:43:45;2.13;;;1.40;;
8337;SDS011;4206;48.634;9.516;2023-12-20T12:46:11;4.00;;;1.40;;
8337;SDS011;4206;48.634;9.516;2023-12-20T12:48:39;6.03;;;1.20;;
8337;SDS011;4206;48.634;9.516;2023-12-20T12:51:08;17.63;;;1.63;;
8337;SDS011;4206;48.634;9.516;2023-12-20T12:53:39;4.13;;;1.00;;
8337;SDS011;4206;48.634;9.516;2023-12-20T12:56:06;4.17;;;0.80;;
8337;SDS011;4206;48.634;9.516;2023-12-20T12:58:34;5.90;;;0.90;;
8337;SDS011;4206;48.634;9.516;2023-12-20T13:01:01;3.43;;;1.30;;
8337;SDS011;4206;48.634;9.516;2023-12-20T13:03:30;1.10;;;0.70;;
8337;SDS011;4206;48.634;9.516;2023-12-20T13:05:57;6.23;;;1.67;;
8337;SDS011;4206;48.634;9.516;2023-12-20T13:08:24;4.10;;;1.67;;
8337;SDS011;4206;48.634;9.516;2023-12-20T13:10:51;4.07;;;1.33;;
8337;SDS011;4206;48.634;9.516;2023-12-20T13:13:18;5.73;;;1.00;;
8337;SDS011;4206;48.634;9.516;2023-12-20T13:15:45;10.50;;;3.60;;
8337;SDS011;4206;48.634;9.516;2023-12-20T13:18:17;2.47;;;1.37;;
8337;SDS011;4206;48.634;9.516;2023-12-20T13:20:45;4.90;;;1.13;;
8337;SDS011;4206;48.634;9.516;2023-12-20T13:23:12;3.10;;;1.87;;
8337;SDS011;4206;48.634;9.516;2023-12-20T13:25:39;3.40;;;1.30;;
8337;SDS011;4206;48.634;9.516;2023-12-20T13:28:07;6.13;;;1.90;;
8337;SDS011;4206;48.634;9.516;2023-12-20T13:30:34;3.33;;;1.40;;
8337;SDS011;4206;48.634;9.516;2023-12-20T13:33:02;3.50;;;1.30;;
8337;SDS011;4206;48.634;9.516;2023-12-20T13:35:29;6.67;;;1.23;;
8337;SDS011;4206;48.634;9.516;2023-12-20T13:37:57;3.73;;;0.80;;
8337;SDS011;4206;48.634;9.516;2023-12-20T13:40:24;4.00;;;1.10;;
8337;SDS011;4206;48.634;9.516;2023-12-20T13:42:51;4.17;;;1.13;;
8337;SDS011;4206;48.634;9.516;2023-12-20T13:45:18;7.90;;;1.43;;
8337;SDS011;4206;48.634;9.516;2023-12-20T13:47:45;5.83;;;0.90;;
8337;SDS011;4206;48.634;9.516;2023-12-20T13:50:13;10.70;;;1.27;;
8337;SDS011;4206;48.634;9.516;2023-12-20T13:52:40;2.70;;;1.20;;
8337;SDS011;4206;48.634;9.516;2023-12-20T13:55:07;6.20;;;1.20;;
8337;SDS011;4206;48.634;9.516;2023-12-20T13:57:35;5.37;;;2.17;;
8337;SDS011;4206;48.634;9.516;2023-12-20T14:00:20;4.30;;;1.13;;
8337;SDS011;4206;48.634;9.516;2023-12-20T14:02:47;3.23;;;1.07;;
8337;SDS011;4206;48.634;9.516;2023-12-20T14:05:15;5.93;;;1.20;;
8337;SDS011;4206;48.634;9.516;2023-12-20T14:07:45;5.00;;;0.70;;
8337;SDS011;4206;48.634;9.516;2023-12-20T14:10:13;3.17;;;0.77;;
8337;SDS011;4206;48.634;9.516;2023-12-20T14:12:40;8.80;;;1.00;;
8337;SDS011;4206;48.634;9.516;2023-12-20T14:15:07;3.37;;;1.07;;
8337;SDS011;4206;48.634;9.516;2023-12-20T14:17:37;2.00;;;0.90;;
8337;SDS011;4206;48.634;9.516;2023-12-20T14:20:05;2.00;;;0.97;;
8337;SDS011;4206;48.634;9.516;2023-12-20T14:22:34;4.83;;;1.10;;
8337;SDS011;4206;48.634;9.516;2023-12-20T14:25:01;2.50;;;0.97;;
8337;SDS011;4206;48.634;9.516;2023-12-20T14:27:29;4.50;;;1.07;;
8337;SDS011;4206;48.634;9.516;2023-12-20T14:29:56;2.37;;;0.87;;
8337;SDS011;4206;48.634;9.516;2023-12-20T14:32:24;4.13;;;1.60;;
8337;SDS011;4206;48.634;9.516;2023-12-20T14:34:53;9.53;;;1.37;;
8337;SDS011;4206;48.634;9.516;2023-12-20T14:37:21;6.40;;;1.00;;
8337;SDS011;4206;48.634;9.516;2023-12-20T14:39:48;5.73;;;1.30;;
8337;SDS011;4206;48.634;9.516;2023-12-20T14:42:16;5.23;;;1.10;;
8337;SDS011;4206;48.634;9.516;2023-12-20T14:44:43;4.70;;;1.07;;
8337;SDS011;4206;48.634;9.516;2023-12-20T14:47:10;4.67;;;2.10;;
8337;SDS011;4206;48.634;9.516;2023-12-20T14:49:37;9.80;;;1.67;;
8337;SDS011;4206;48.634;9.516;2023-12-20T14:52:04;5.70;;;1.10;;
8337;SDS011;4206;48.634;9.516;2023-12-20T14:54:31;2.40;;;0.80;;
8337;SDS011;4206;48.634;9.516;2023-12-20T14:57:01;3.70;;;1.00;;
8337;SDS011;4206;48.634;9.516;2023-12-20T14:59:31;3.57;;;1.50;;
8337;SDS011;4206;48.634;9.516;2023-12-20T15:01:58;6.30;;;1.20;;
8337;SDS011;4206;48.634;9.516;2023-12-20T15:04:25;10.23;;;1.80;;
8337;SDS011;4206;48.634;9.516;2023-12-20T15:06:55;4.20;;;1.20;;
8337;SDS011;4206;48.634;9.516;2023-12-20T15:09:22;5.00;;;1.17;;
8337;SDS011;4206;48.634;9.516;2023-12-20T15:11:50;5.73;;;1.23;;
8337;SDS011;4206;48.634;9.516;2023-12-20T15:14:17;2.80;;;0.90;;
8337;SDS011;4206;48.634;9.516;2023-12-20T15:16:46;5.40;;;1.60;;
8337;SDS011;4206;48.634;9.516;2023-12-20T15:19:13;5.27;;;1.33;;
8337;SDS011;4206;48.634;9.516;2023-12-20T15:21:41;8.70;;;2.50;;